TimeAKDT,TemperatureF,Dew PointF,Humidity,Sea Level PressureIn,VisibilityMPH,Wind Direction,Wind SpeedMPH,Gust SpeedMPH,PrecipitationIn,Events,Conditions,WindDirDegrees,DateUTC
12:16 AM,42.8,35.6,76,29.99,10.0,East,3.5,-,N/A,,Overcast,90,2013-05-26 08:16:00
12:36 AM,41.0,33.8,76,29.99,10.0,Calm,Calm,-,N/A,,Overcast,0,2013-05-26 08:36:00
1:16 AM,42.8,35.6,76,29.99,10.0,ENE,3.5,-,N/A,,Mostly Cloudy,70,2013-05-26 09:16:00
1:56 AM,39.2,35.6,87,29.99,10.0,NE,3.5,-,N/A,,Partly Cloudy,50,2013-05-26 09:56:00
2:56 AM,39.2,35.6,87,29.99,10.0,Calm,Calm,-,N/A,,Overcast,0,2013-05-26 10:56:00
3:16 AM,41.0,35.6,81,29.99,10.0,ESE,3.5,-,N/A,,Overcast,110,2013-05-26 11:16:00
3:36 AM,39.2,35.6,87,29.98,10.0,Calm,Calm,-,N/A,,Overcast,0,2013-05-26 11:36:00
3:56 AM,39.2,35.6,87,29.98,10.0,Calm,Calm,-,N/A,,Overcast,0,2013-05-26 11:56:00
4:36 AM,39.2,37.4,93,29.98,10.0,Calm,Calm,-,N/A,,Overcast,0,2013-05-26 12:36:00
4:56 AM,41.0,37.4,87,29.98,10.0,Calm,Calm,-,N/A,,Overcast,0,2013-05-26 12:56:00
5:16 AM,41.0,37.4,87,29.98,10.0,Calm,Calm,-,N/A,,Overcast,0,2013-05-26 13:16:00
5:36 AM,39.2,35.6,87,29.98,10.0,East,3.5,-,N/A,,Overcast,80,2013-05-26 13:36:00
5:56 AM,39.2,37.4,93,29.98,10.0,East,5.8,-,N/A,,Mostly Cloudy,90,2013-05-26 13:56:00
6:16 AM,41.0,37.4,87,29.99,10.0,Calm,Calm,-,N/A,,Mostly Cloudy,0,2013-05-26 14:16:00
6:36 AM,39.2,35.6,87,29.98,10.0,Calm,Calm,-,N/A,,Mostly Cloudy,0,2013-05-26 14:36:00
6:56 AM,39.2,35.6,87,29.99,10.0,Calm,Calm,-,N/A,,Overcast,0,2013-05-26 14:56:00
7:16 AM,41.0,35.6,81,29.99,10.0,Calm,Calm,-,N/A,,Overcast,0,2013-05-26 15:16:00
7:36 AM,41.0,35.6,81,30.00,10.0,Calm,Calm,-,N/A,,Overcast,0,2013-05-26 15:36:00
7:56 AM,41.0,35.6,81,29.99,10.0,Calm,Calm,-,N/A,,Overcast,0,2013-05-26 15:56:00
8:36 AM,42.8,39.2,87,29.98,10.0,Calm,Calm,-,N/A,,Overcast,0,2013-05-26 16:36:00
9:56 AM,44.6,42.8,93,29.97,10.0,Calm,Calm,-,N/A,,Mostly Cloudy,0,2013-05-26 17:56:00
10:16 AM,46.4,39.2,76,29.97,10.0,Calm,Calm,-,N/A,,Mostly Cloudy,0,2013-05-26 18:16:00
10:36 AM,46.4,39.2,76,29.96,10.0,Calm,Calm,-,N/A,,Mostly Cloudy,0,2013-05-26 18:36:00
10:56 AM,46.4,37.4,71,29.97,10.0,Calm,Calm,-,N/A,,Mostly Cloudy,0,2013-05-26 18:56:00
11:16 AM,46.4,41.0,81,29.96,10.0,WSW,3.5,-,N/A,,Mostly Cloudy,250,2013-05-26 19:16:00
11:36 AM,-9999,-9999,N/A,29.96,10.0,Calm,Calm,-,N/A,,Mostly Cloudy,0,2013-05-26 19:36:00
11:56 AM,46.4,41.0,81,29.96,10.0,West,3.5,-,N/A,,Mostly Cloudy,260,2013-05-26 19:56:00
12:16 PM,46.4,41.0,81,29.96,10.0,West,4.6,-,N/A,,Mostly Cloudy,270,2013-05-26 20:16:00
12:36 PM,46.4,41.0,81,29.96,10.0,West,3.5,-,N/A,,Mostly Cloudy,270,2013-05-26 20:36:00
12:56 PM,46.4,39.2,76,29.96,10.0,West,3.5,-,N/A,,Mostly Cloudy,260,2013-05-26 20:56:00
2:16 PM,46.4,39.2,76,29.96,10.0,West,3.5,-,N/A,,Mostly Cloudy,260,2013-05-26 22:16:00
2:36 PM,46.4,39.2,76,29.96,10.0,West,3.5,-,N/A,,Mostly Cloudy,260,2013-05-26 22:36:00
2:56 PM,46.4,39.2,76,29.97,10.0,Calm,Calm,-,N/A,,Overcast,0,2013-05-26 22:56:00
3:16 PM,46.4,39.2,76,29.97,10.0,Calm,Calm,-,N/A,,Overcast,0,2013-05-26 23:16:00
3:36 PM,48.2,39.2,71,29.98,10.0,Calm,Calm,-,N/A,,Overcast,0,2013-05-26 23:36:00
3:56 PM,46.4,39.2,76,29.98,10.0,WSW,3.5,-,N/A,,Overcast,250,2013-05-26 23:56:00
4:16 PM,46.4,41.0,81,29.98,10.0,Calm,Calm,-,N/A,,Overcast,0,2013-05-27 00:16:00
4:56 PM,46.4,41.0,81,29.98,10.0,Calm,Calm,-,0.01,,Overcast,0,2013-05-27 00:56:00
5:16 PM,46.4,41.0,81,29.98,10.0,Calm,Calm,-,N/A,,Overcast,0,2013-05-27 01:16:00
5:36 PM,46.4,41.0,81,29.98,10.0,Calm,Calm,-,N/A,,Overcast,0,2013-05-27 01:36:00
5:56 PM,46.4,41.0,81,29.98,10.0,Calm,Calm,-,N/A,,Overcast,0,2013-05-27 01:56:00
6:36 PM,46.4,41.0,81,29.98,10.0,Calm,Calm,-,N/A,,Overcast,0,2013-05-27 02:36:00
7:16 PM,46.4,41.0,81,29.97,10.0,Calm,Calm,-,N/A,,Overcast,0,2013-05-27 03:16:00
7:56 PM,46.4,39.2,76,29.97,10.0,ENE,4.6,-,N/A,,Overcast,60,2013-05-27 03:56:00
8:16 PM,44.6,39.2,81,29.97,10.0,Calm,Calm,-,N/A,,Overcast,0,2013-05-27 04:16:00
8:36 PM,44.6,39.2,81,29.97,10.0,Calm,Calm,-,N/A,,Overcast,0,2013-05-27 04:36:00
8:56 PM,44.6,39.2,81,29.96,10.0,East,4.6,-,N/A,,Mostly Cloudy,90,2013-05-27 04:56:00
9:16 PM,44.6,37.4,76,29.96,10.0,ESE,3.5,-,N/A,,Mostly Cloudy,110,2013-05-27 05:16:00
9:36 PM,44.6,37.4,76,29.96,10.0,ENE,3.5,-,N/A,,Mostly Cloudy,70,2013-05-27 05:36:00
9:56 PM,44.6,37.4,76,29.97,10.0,East,4.6,-,N/A,,Mostly Cloudy,90,2013-05-27 05:56:00
10:16 PM,42.8,37.4,81,29.97,10.0,Calm,Calm,-,N/A,,Mostly Cloudy,0,2013-05-27 06:16:00
10:36 PM,42.8,37.4,81,29.97,10.0,Calm,Calm,-,N/A,,Scattered Clouds,0,2013-05-27 06:36:00
10:56 PM,42.8,37.4,81,29.98,10.0,Calm,Calm,-,N/A,,Partly Cloudy,0,2013-05-27 06:56:00
11:36 PM,41.0,37.4,87,29.98,10.0,Calm,Calm,-,N/A,,Clear,0,2013-05-27 07:36:00